Time,TemperatureF,DewpointF,PressureIn,WindDirection,WindDirectionDegrees,WindSpeedMPH,WindSpeedGustMPH,Humidity,HourlyPrecipIn,Conditions,Clouds,dailyrainin,SoftwareType,DateUTC
2013-07-28 00:02:00,63.0,62.0,29.96,WSW,247,0.0,0.0,95,0.00,,,0.08,,2013-07-28 05:02:00,
2013-07-28 00:12:00,62.0,61.0,29.96,WSW,247,0.0,0.0,95,0.00,,,0.08,,2013-07-28 05:12:00,
2013-07-28 00:22:00,62.0,61.0,29.97,WSW,247,0.0,0.0,95,0.00,,,0.08,,2013-07-28 05:22:00,
2013-07-28 00:32:00,62.0,61.0,29.97,WSW,247,0.0,0.0,95,0.00,,,0.08,,2013-07-28 05:32:00,
2013-07-28 00:43:00,62.0,61.0,29.96,WSW,247,0.0,0.0,96,0.00,,,0.08,,2013-07-28 05:43:00,
2013-07-28 00:52:00,62.0,61.0,29.96,WSW,247,0.0,0.0,96,0.00,,,0.08,,2013-07-28 05:52:00,
2013-07-28 01:02:00,62.0,61.0,29.96,WSW,247,0.0,0.0,96,0.00,,,0.08,,2013-07-28 06:02:00,
2013-07-28 01:12:00,61.0,60.0,29.97,WSW,247,0.0,0.0,96,0.00,,,0.08,,2013-07-28 06:12:00,
2013-07-28 01:22:00,61.0,60.0,29.97,WSW,247,0.0,0.0,96,0.00,,,0.07,,2013-07-28 06:22:00,
2013-07-28 01:32:00,61.0,60.0,29.97,WSW,247,0.0,0.0,96,0.00,,,0.07,,2013-07-28 06:32:00,
2013-07-28 01:43:00,61.0,60.0,29.98,WSW,247,0.0,0.0,97,0.00,,,0.07,,2013-07-28 06:43:00,
2013-07-28 01:52:00,61.0,60.0,29.97,WSW,247,0.0,0.0,97,0.00,,,0.07,,2013-07-28 06:52:00,
2013-07-28 02:02:00,61.0,60.0,29.97,WSW,247,0.0,0.0,97,0.00,,,0.07,,2013-07-28 07:02:00,
2013-07-28 02:12:00,61.0,60.0,29.96,WSW,247,0.0,0.0,97,0.00,,,0.07,,2013-07-28 07:12:00,
2013-07-28 02:22:00,61.0,60.0,29.96,WSW,247,0.0,0.0,97,0.00,,,0.06,,2013-07-28 07:22:00,
2013-07-28 02:32:00,61.0,60.0,29.96,WSW,247,0.0,0.0,97,0.00,,,0.06,,2013-07-28 07:32:00,
2013-07-28 02:43:00,61.0,60.0,29.97,WSW,247,0.0,0.0,98,0.00,,,0.06,,2013-07-28 07:43:00,
2013-07-28 02:53:00,61.0,60.0,29.97,WSW,247,0.0,0.0,98,0.00,,,0.06,,2013-07-28 07:53:00,
2013-07-28 03:02:00,61.0,60.0,29.97,WSW,247,0.0,0.0,98,0.00,,,0.06,,2013-07-28 08:02:00,
2013-07-28 03:12:00,62.0,61.0,29.97,WSW,247,0.0,0.0,98,0.00,,,0.06,,2013-07-28 08:12:00,
2013-07-28 03:22:00,62.0,61.0,29.97,WSW,247,0.0,0.0,98,0.00,,,0.06,,2013-07-28 08:22:00,
2013-07-28 03:33:00,62.0,61.0,29.97,WSW,247,0.0,0.0,98,0.00,,,0.06,,2013-07-28 08:33:00,
2013-07-28 03:42:00,62.0,61.0,29.96,WSW,247,0.0,0.0,98,0.00,,,0.06,,2013-07-28 08:42:00,
2013-07-28 03:53:00,62.0,61.0,29.95,WSW,247,0.0,0.0,98,0.00,,,0.06,,2013-07-28 08:53:00,
2013-07-28 04:02:00,62.0,61.0,29.95,WSW,247,0.0,0.0,98,0.00,,,0.06,,2013-07-28 09:02:00,
2013-07-28 04:12:00,62.0,61.0,29.95,WSW,247,0.0,0.0,98,0.00,,,0.06,,2013-07-28 09:12:00,
2013-07-28 04:22:00,62.0,61.0,29.95,WSW,247,0.0,0.0,98,0.00,,,0.05,,2013-07-28 09:22:00,
2013-07-28 04:32:00,62.0,61.0,29.95,WSW,247,0.0,0.0,98,0.00,,,0.05,,2013-07-28 09:32:00,
2013-07-28 04:43:00,62.0,61.0,29.95,WSW,247,0.0,0.0,98,0.00,,,0.05,,2013-07-28 09:43:00,
2013-07-28 04:53:00,62.0,61.0,29.96,WSW,247,0.0,0.0,97,0.00,,,0.05,,2013-07-28 09:53:00,
2013-07-28 05:02:00,62.0,61.0,29.96,WSW,247,0.0,0.0,97,0.00,,,0.05,,2013-07-28 10:02:00,
2013-07-28 05:12:00,62.0,61.0,29.96,WSW,247,0.0,0.0,97,0.00,,,0.05,,2013-07-28 10:12:00,
2013-07-28 05:22:00,62.0,61.0,29.96,WSW,247,0.0,0.0,97,0.00,,,0.05,,2013-07-28 10:22:00,
2013-07-28 05:33:00,62.0,61.0,29.96,WSW,247,0.0,0.0,97,0.00,,,0.05,,2013-07-28 10:33:00,
2013-07-28 05:42:00,62.0,61.0,29.96,WSW,247,0.0,0.0,97,0.00,,,0.05,,2013-07-28 10:42:00,
2013-07-28 05:52:00,62.0,61.0,29.96,WSW,247,0.0,0.0,97,0.00,,,0.05,,2013-07-28 10:52:00,
2013-07-28 06:12:00,63.0,62.0,29.99,WSW,247,0.0,0.0,98,0.00,,,0.05,,2013-07-28 11:12:00,
2013-07-28 06:22:00,62.0,61.0,30.00,WSW,247,0.0,0.0,97,0.00,,,0.04,,2013-07-28 11:22:00,
2013-07-28 06:33:00,62.0,61.0,30.00,WSW,247,0.0,0.0,97,0.00,,,0.04,,2013-07-28 11:33:00,
2013-07-28 06:43:00,62.0,61.0,29.99,WSW,247,0.0,0.0,97,0.00,,,0.04,,2013-07-28 11:43:00,
2013-07-28 07:02:00,62.0,61.0,29.98,WSW,247,0.0,0.0,97,0.00,,,0.04,,2013-07-28 12:02:00,
2013-07-28 07:12:00,62.0,61.0,29.98,WSW,247,0.0,0.0,97,0.00,,,0.04,,2013-07-28 12:12:00,
2013-07-28 07:22:00,63.0,62.0,29.99,WSW,247,0.0,0.0,97,0.00,,,0.04,,2013-07-28 12:22:00,
2013-07-28 07:33:00,63.0,62.0,29.99,WSW,247,0.0,0.0,97,0.00,,,0.04,,2013-07-28 12:33:00,
2013-07-28 07:43:00,63.0,62.0,29.98,WSW,247,0.0,0.0,97,0.00,,,0.04,,2013-07-28 12:43:00,
2013-07-28 07:53:00,63.0,62.0,30.00,WSW,247,0.0,1.0,97,0.00,,,0.04,,2013-07-28 12:53:00,
2013-07-28 08:02:00,63.0,62.0,30.00,WSW,247,0.0,1.0,97,0.00,,,0.04,,2013-07-28 13:02:00,
2013-07-28 08:12:00,64.0,63.0,30.00,WSW,247,0.0,0.0,97,0.00,,,0.04,,2013-07-28 13:12:00,
2013-07-28 08:22:00,64.0,63.0,30.00,WSW,247,0.0,0.0,97,0.00,,,0.04,,2013-07-28 13:22:00,
2013-07-28 08:32:00,64.0,63.0,30.00,WSW,247,0.0,0.0,97,0.00,,,0.04,,2013-07-28 13:32:00,
2013-07-28 08:43:00,65.0,64.0,30.00,WSW,247,0.0,0.0,95,0.00,,,0.04,,2013-07-28 13:43:00,
2013-07-28 08:52:00,65.0,63.0,30.00,WSW,247,0.0,0.0,94,0.00,,,0.04,,2013-07-28 13:52:00,
2013-07-28 09:02:00,65.0,63.0,30.00,WSW,247,0.0,0.0,94,0.00,,,0.04,,2013-07-28 14:02:00,
2013-07-28 09:12:00,66.0,64.0,30.00,WSW,247,0.0,0.0,94,0.00,,,0.04,,2013-07-28 14:12:00,
2013-07-28 09:23:00,66.0,64.0,30.00,WSW,247,0.0,0.0,92,0.00,,,0.03,,2013-07-28 14:23:00,
2013-07-28 09:33:00,66.0,64.0,30.00,WSW,247,0.0,0.0,92,0.00,,,0.03,,2013-07-28 14:33:00,
2013-07-28 09:43:00,66.0,63.0,30.00,WSW,247,0.0,1.0,90,0.00,,,0.03,,2013-07-28 14:43:00,
2013-07-28 09:53:00,67.0,64.0,29.99,SSE,153,0.0,0.0,89,0.00,,,0.03,,2013-07-28 14:53:00,
2013-07-28 10:03:00,67.0,64.0,29.99,SSE,153,0.0,0.0,89,0.00,,,0.03,,2013-07-28 15:03:00,
2013-07-28 10:13:00,67.0,64.0,29.98,South,170,0.0,1.0,90,0.00,,,0.03,,2013-07-28 15:13:00,
2013-07-28 10:22:00,67.0,64.0,29.98,ESE,109,0.0,0.0,90,0.00,,,0.03,,2013-07-28 15:22:00,
2013-07-28 10:32:00,67.0,64.0,29.98,ESE,109,0.0,0.0,90,0.00,,,0.03,,2013-07-28 15:32:00,
2013-07-28 10:43:00,68.0,64.0,29.98,ENE,74,0.0,1.0,88,0.00,,,0.03,,2013-07-28 15:43:00,
2013-07-28 10:53:00,68.0,64.0,29.99,ENE,78,0.0,1.0,87,0.00,,,0.03,,2013-07-28 15:53:00,
2013-07-28 11:02:00,68.0,64.0,29.99,ENE,78,0.0,1.0,87,0.00,,,0.03,,2013-07-28 16:02:00,
2013-07-28 11:12:00,69.0,64.0,29.98,SW,221,0.0,4.0,83,0.00,,,0.03,,2013-07-28 16:12:00,
2013-07-28 11:22:00,71.0,65.0,29.98,NE,51,0.0,2.0,81,0.00,,,0.03,,2013-07-28 16:22:00,
2013-07-28 11:33:00,71.0,65.0,29.98,NE,51,0.0,2.0,81,0.00,,,0.03,,2013-07-28 16:33:00,
2013-07-28 11:43:00,71.0,64.0,29.98,ENE,65,0.0,2.0,79,0.00,,,0.03,,2013-07-28 16:43:00,
2013-07-28 12:02:00,73.0,67.0,29.98,West,279,0.0,5.0,81,0.00,,,0.03,,2013-07-28 17:02:00,
2013-07-28 12:12:00,74.0,67.0,29.98,East,79,0.0,2.0,79,0.00,,,0.03,,2013-07-28 17:12:00,
2013-07-28 12:23:00,76.0,67.0,29.98,ENE,66,0.0,5.0,73,0.00,,,0.02,,2013-07-28 17:23:00,
2013-07-28 12:32:00,76.0,67.0,29.98,ENE,66,0.0,5.0,73,0.00,,,0.02,,2013-07-28 17:32:00,
2013-07-28 12:43:00,78.0,67.0,29.98,SW,235,0.0,6.0,68,0.00,,,0.02,,2013-07-28 17:43:00,
2013-07-28 13:03:00,79.0,67.0,29.98,West,259,0.0,6.0,67,0.00,,,0.02,,2013-07-28 18:03:00,
2013-07-28 13:12:00,80.0,66.0,29.98,SW,234,0.0,2.0,63,0.00,,,0.02,,2013-07-28 18:12:00,
2013-07-28 13:22:00,81.0,66.0,29.98,SW,218,0.0,4.0,60,0.00,,,0.01,,2013-07-28 18:22:00,
2013-07-28 13:33:00,81.0,66.0,29.98,SW,218,0.0,4.0,60,0.00,,,0.01,,2013-07-28 18:33:00,
2013-07-28 13:43:00,80.0,66.0,29.98,WSW,257,0.0,4.0,63,0.00,,,0.01,,2013-07-28 18:43:00,
2013-07-28 13:52:00,81.0,68.0,29.98,West,263,0.0,5.0,65,0.00,,,0.01,,2013-07-28 18:52:00,
2013-07-28 14:02:00,81.0,68.0,29.98,West,263,0.0,5.0,65,0.00,,,0.01,,2013-07-28 19:02:00,
2013-07-28 14:12:00,82.0,68.0,29.97,WSW,258,0.0,5.0,63,0.00,,,0.01,,2013-07-28 19:12:00,
2013-07-28 14:22:00,82.0,69.0,29.97,West,265,0.0,7.0,64,0.00,,,0.01,,2013-07-28 19:22:00,
2013-07-28 14:33:00,82.0,69.0,29.97,West,265,0.0,7.0,64,0.00,,,0.01,,2013-07-28 19:33:00,
2013-07-28 14:43:00,82.0,69.0,29.97,South,179,0.0,1.0,66,0.00,,,0.01,,2013-07-28 19:43:00,
2013-07-28 14:52:00,82.0,68.0,29.97,SW,222,0.0,1.0,62,0.00,,,0.01,,2013-07-28 19:52:00,
2013-07-28 15:02:00,82.0,68.0,29.97,SW,222,0.0,1.0,62,0.00,,,0.01,,2013-07-28 20:02:00,
2013-07-28 15:12:00,83.0,68.0,29.96,SSE,165,0.0,1.0,61,0.00,,,0.01,,2013-07-28 20:12:00,
2013-07-28 15:23:00,82.0,68.0,29.96,SSE,154,0.0,1.0,63,0.00,,,0.01,,2013-07-28 20:23:00,
2013-07-28 15:33:00,82.0,68.0,29.96,SSE,154,0.0,1.0,63,0.00,,,0.01,,2013-07-28 20:33:00,
2013-07-28 15:43:00,82.0,69.0,29.96,East,87,0.0,0.0,65,0.00,,,0.01,,2013-07-28 20:43:00,
2013-07-28 15:52:00,81.0,68.0,29.97,East,87,0.0,0.0,64,0.00,,,0.01,,2013-07-28 20:52:00,
2013-07-28 16:03:00,81.0,68.0,29.97,East,87,0.0,0.0,64,0.00,,,0.01,,2013-07-28 21:03:00,
2013-07-28 16:13:00,81.0,69.0,29.96,South,184,0.0,2.0,67,0.00,,,0.01,,2013-07-28 21:13:00,
2013-07-28 16:22:00,80.0,68.0,29.96,ENE,78,0.0,1.0,67,0.00,,,0.00,,2013-07-28 21:22:00,
2013-07-28 16:33:00,80.0,68.0,29.96,ENE,78,0.0,1.0,67,0.00,,,0.00,,2013-07-28 21:33:00,
2013-07-28 16:44:00,80.0,69.0,29.96,SSW,198,0.0,1.0,70,0.00,,,0.00,,2013-07-28 21:44:00,
2013-07-28 16:52:00,79.0,69.0,29.96,SSW,198,0.0,0.0,72,0.00,,,0.00,,2013-07-28 21:52:00,
2013-07-28 17:02:00,79.0,69.0,29.96,SSW,198,0.0,0.0,72,0.00,,,0.00,,2013-07-28 22:02:00,
2013-07-28 17:12:00,78.0,67.0,29.96,South,169,0.0,0.0,70,0.00,,,0.00,,2013-07-28 22:12:00,
2013-07-28 17:22:00,77.0,67.0,29.96,SSE,154,0.0,1.0,72,0.00,,,0.00,,2013-07-28 22:22:00,
2013-07-28 17:32:00,77.0,67.0,29.96,SSE,154,0.0,1.0,72,0.00,,,0.00,,2013-07-28 22:32:00,
2013-07-28 17:43:00,77.0,67.0,29.96,East,100,0.0,1.0,71,0.00,,,0.00,,2013-07-28 22:43:00,
2013-07-28 17:52:00,76.0,65.0,29.96,ESE,105,0.0,4.0,70,0.00,,,0.00,,2013-07-28 22:52:00,
2013-07-28 18:03:00,76.0,65.0,29.96,ESE,105,0.0,4.0,70,0.00,,,0.00,,2013-07-28 23:03:00,
2013-07-28 18:12:00,76.0,65.0,29.96,East,80,1.0,5.0,70,0.00,,,0.00,,2013-07-28 23:12:00,
2013-07-28 18:22:00,77.0,67.0,29.96,ENE,67,0.0,2.0,71,0.00,,,0.00,,2013-07-28 23:22:00,
2013-07-28 18:32:00,77.0,67.0,29.96,ENE,67,0.0,2.0,71,0.00,,,0.00,,2013-07-28 23:32:00,
2013-07-28 18:43:00,76.0,66.0,29.97,East,88,1.0,6.0,72,0.00,,,0.00,,2013-07-28 23:43:00,
2013-07-28 18:53:00,76.0,67.0,29.97,ENE,72,0.0,5.0,74,0.00,,,0.00,,2013-07-28 23:53:00,
2013-07-28 19:03:00,76.0,67.0,29.97,ENE,72,0.0,5.0,74,0.00,,,0.00,,2013-07-29 00:03:00,
2013-07-28 19:22:00,74.0,66.0,29.98,East,83,0.0,2.0,76,0.00,,,0.00,,2013-07-29 00:22:00,
2013-07-28 19:32:00,74.0,66.0,29.98,East,83,0.0,2.0,76,0.00,,,0.00,,2013-07-29 00:32:00,
2013-07-28 19:43:00,74.0,66.0,29.99,ENE,74,0.0,4.0,76,0.00,,,0.00,,2013-07-29 00:43:00,
2013-07-28 19:52:00,73.0,65.0,29.99,ENE,66,1.0,6.0,75,0.00,,,0.00,,2013-07-29 00:52:00,
2013-07-28 20:02:00,73.0,65.0,29.99,ENE,66,1.0,6.0,75,0.00,,,0.00,,2013-07-29 01:02:00,
2013-07-28 20:14:00,72.0,64.0,29.99,East,80,1.0,5.0,75,0.00,,,0.00,,2013-07-29 01:14:00,
2013-07-28 21:05:00,70.0,64.0,29.99,ENE,78,0.0,4.0,80,0.00,,,0.00,,2013-07-29 02:05:00,
2013-07-28 21:14:00,70.0,64.0,29.98,ENE,74,0.0,1.0,82,0.00,,,0.00,,2013-07-29 02:14:00,
2013-07-28 21:25:00,70.0,64.0,29.98,ENE,77,0.0,4.0,81,0.00,,,0.00,,2013-07-29 02:25:00,
2013-07-28 21:36:00,70.0,64.0,29.98,ENE,77,0.0,4.0,81,0.00,,,0.00,,2013-07-29 02:36:00,
2013-07-28 22:03:00,70.0,64.0,29.98,ENE,72,0.0,4.0,81,0.00,,,0.00,,2013-07-29 03:03:00,
2013-07-28 22:24:00,70.0,64.0,29.99,East,92,0.0,2.0,81,0.00,,,0.00,,2013-07-29 03:24:00,
2013-07-28 22:36:00,70.0,64.0,29.99,East,92,0.0,2.0,81,0.00,,,0.00,,2013-07-29 03:36:00,
2013-07-28 22:48:00,70.0,65.0,29.99,ENE,77,0.0,2.0,83,0.00,,,0.00,,2013-07-29 03:48:00,
2013-07-28 22:56:00,70.0,65.0,29.99,East,92,0.0,2.0,83,0.00,,,0.00,,2013-07-29 03:56:00,
2013-07-28 23:02:00,70.0,65.0,29.99,East,92,0.0,2.0,83,0.00,,,0.00,,2013-07-29 04:02:00,
2013-07-28 23:12:00,70.0,65.0,29.99,East,84,0.0,2.0,84,0.00,,,0.00,,2013-07-29 04:12:00,
2013-07-28 23:22:00,70.0,65.0,29.99,East,85,0.0,2.0,84,0.00,,,0.00,,2013-07-29 04:22:00,
2013-07-28 23:32:00,70.0,65.0,29.99,East,85,0.0,2.0,84,0.00,,,0.00,,2013-07-29 04:32:00,
2013-07-28 23:43:00,70.0,66.0,29.99,ENE,75,0.0,1.0,86,0.00,,,0.00,,2013-07-29 04:43:00,
2013-07-28 23:53:00,70.0,66.0,29.99,ENE,75,0.0,0.0,87,0.00,,,0.00,,2013-07-29 04:53:00,